Time;durP1;ratioP1;P1;durP2;ratioP2;P2;SDS_P1;SDS_P2;PMS_P1;PMS_P2;Temp;Humidity;BMP_temperature;BMP_pressure;BME280_temperature;BME280_humidity;BME280_pressure;Samples;Min_cycle;Max_cycle;Signal;HPM_P1;HPM_P2
2021/06/01 00:01:17;;;;;;;40.53;16.05;;;;;;;11.27;73.80;101043.81;4986945;28;20464;-76
2021/06/01 00:03:43;;;;;;;30.90;15.63;;;;;;;11.31;73.82;101044.66;4987573;28;20030;-76
2021/06/01 00:06:08;;;;;;;26.63;15.05;;;;;;;11.37;73.75;101043.78;4969998;28;20031;-75
2021/06/01 00:08:34;;;;;;;38.47;16.27;;;;;;;11.38;73.46;101038.59;4987207;28;20018;-75
2021/06/01 00:10:59;;;;;;;36.70;15.63;;;;;;;11.40;73.33;101036.88;4987072;28;20110;-75
2021/06/01 00:13:24;;;;;;;35.25;16.17;;;;;;;11.39;73.38;101042.91;4987089;28;20027;-74
2021/06/01 00:15:50;;;;;;;34.08;15.77;;;;;;;11.42;73.19;101041.19;4987012;28;20476;-77
2021/06/01 00:18:15;;;;;;;43.22;16.75;;;;;;;11.40;73.33;101039.47;4987012;28;20030;-76
2021/06/01 00:20:40;;;;;;;37.22;17.45;;;;;;;11.42;73.58;101031.66;4986908;28;20023;-76
2021/06/01 00:23:06;;;;;;;40.85;15.05;;;;;;;11.43;73.34;101038.56;4987188;28;20033;-76
2021/06/01 00:25:31;;;;;;;27.35;14.95;;;;;;;11.40;73.26;101041.19;4986774;28;20042;-75
2021/06/01 00:27:57;;;;;;;31.85;15.95;;;;;;;11.32;73.53;101038.59;4969439;28;20023;-76
2021/06/01 00:30:22;;;;;;;34.72;15.05;;;;;;;11.26;73.50;101042.06;4969275;28;20023;-76
2021/06/01 00:32:48;;;;;;;37.70;16.50;;;;;;;11.21;73.77;101040.34;4986682;28;20034;-75
2021/06/01 00:35:13;;;;;;;32.80;15.57;;;;;;;11.14;74.21;101045.53;4986775;28;20031;-76
2021/06/01 00:37:38;;;;;;;36.60;15.02;;;;;;;11.05;74.43;101047.28;4986845;28;20031;-76
2021/06/01 00:40:05;;;;;;;32.42;14.20;;;;;;;11.02;74.74;101056.78;4986754;28;20078;-76
2021/06/01 00:42:30;;;;;;;36.20;15.52;;;;;;;10.94;75.18;101062.88;4986645;28;20030;-76
2021/06/01 00:44:55;;;;;;;33.83;15.65;;;;;;;10.87;75.61;101065.47;4968841;28;20287;-76
2021/06/01 00:47:21;;;;;;;30.40;14.45;;;;;;;10.88;75.47;101068.91;4986389;28;20030;-75
2021/06/01 00:49:46;;;;;;;40.05;17.48;;;;;;;10.89;75.54;101071.50;4969177;28;20023;-76
2021/06/01 00:52:12;;;;;;;40.08;16.15;;;;;;;10.89;75.74;101066.31;4986338;28;20035;-76
2021/06/01 00:54:38;;;;;;;34.85;15.80;;;;;;;10.80;76.07;101066.28;4968745;28;20019;-76
2021/06/01 00:57:05;;;;;;;35.72;17.27;;;;;;;10.75;76.45;101057.66;4986140;28;20082;-76
2021/06/01 00:59:32;;;;;;;33.55;15.88;;;;;;;10.71;76.51;101066.28;4968755;28;20030;-76
2021/06/01 01:01:58;;;;;;;39.28;17.60;;;;;;;10.73;76.64;101064.56;4986045;28;20031;-75
2021/06/01 01:04:25;;;;;;;38.53;17.85;;;;;;;10.66;76.77;101058.50;4985230;28;20111;-76
2021/06/01 01:07:13;;;;;;;45.30;19.83;;;;;;;10.68;76.84;101063.69;4986228;28;20050;-76
2021/06/01 01:09:40;;;;;;;39.13;18.63;;;;;;;10.65;76.63;101051.56;4986152;28;20099;-75
2021/06/01 01:12:11;;;;;;;35.03;19.17;;;;;;;10.68;76.72;101048.09;4986187;28;20110;-75
2021/06/01 01:14:42;;;;;;;38.53;19.88;;;;;;;10.72;76.50;101060.25;4985750;28;20023;-74
2021/06/01 01:17:15;;;;;;;38.65;19.02;;;;;;;10.72;76.61;101060.25;4985829;28;20037;-75
2021/06/01 01:19:46;;;;;;;42.08;18.38;;;;;;;10.71;76.79;101066.28;4986044;28;20040;-75
2021/06/01 01:22:13;;;;;;;44.50;18.77;;;;;;;10.69;76.71;101066.28;4986165;28;20034;-75
2021/06/01 01:24:44;;;;;;;44.85;18.98;;;;;;;10.76;76.68;101068.06;4988689;28;20273;-75
2021/06/01 01:27:47;;;;;;;39.47;18.70;;;;;;;10.74;76.71;101069.75;4986685;28;20430;-75
2021/06/01 01:30:14;;;;;;;;;;;;;;;10.76;76.50;101070.66;4986255;28;20035;-75
2021/06/01 01:32:58;;;;;;;47.35;18.05;;;;;;;10.74;76.40;101066.28;4985792;28;19961;-77
2021/06/01 01:35:26;;;;;;;46.10;19.75;;;;;;;10.73;76.29;101067.16;4985774;28;20026;-74
2021/06/01 01:37:53;;;;;;;50.28;20.08;;;;;;;10.74;76.37;101071.47;4985488;28;20085;-74
2021/06/01 01:40:23;;;;;;;40.33;19.70;;;;;;;10.78;76.35;101063.69;4985450;28;20151;-74
2021/06/01 01:42:53;;;;;;;37.55;20.52;;;;;;;10.78;76.26;101049.88;4968097;28;20027;-74
2021/06/01 01:45:30;;;;;;;55.63;20.75;;;;;;;10.73;76.34;101042.06;4967774;28;20030;-75
2021/06/01 01:50:44;;;;;;;41.90;19.77;;;;;;;10.76;76.60;101054.19;4985450;28;20108;-74
2021/06/01 01:53:14;;;;;;;38.25;21.10;;;;;;;10.75;76.62;101052.47;4967921;28;20027;-74
2021/06/01 01:55:42;;;;;;;50.47;21.27;;;;;;;10.72;76.73;101052.47;4967666;28;20462;-75
2021/06/01 01:58:08;;;;;;;40.13;20.63;;;;;;;10.73;76.54;101049.88;4967805;28;20027;-76
2021/06/01 02:00:33;;;;;;;54.33;23.50;;;;;;;10.78;76.59;101049.88;4985148;28;20087;-75
2021/06/01 02:03:01;;;;;;;47.15;21.40;;;;;;;10.74;76.15;101041.19;4967652;28;20026;-76
2021/06/01 02:05:27;;;;;;;48.90;22.30;;;;;;;10.72;76.54;101035.13;4985129;28;20026;-77
2021/06/01 02:07:52;;;;;;;49.00;21.55;;;;;;;10.72;76.54;101044.66;4968130;28;20037;-76
2021/06/01 02:10:18;;;;;;;48.05;23.02;;;;;;;10.70;76.60;101041.19;4984860;28;20050;-76
2021/06/01 02:12:43;;;;;;;42.47;22.00;;;;;;;10.70;76.69;101038.59;4984593;28;20027;-76
2021/06/01 02:15:09;;;;;;;51.67;24.27;;;;;;;10.73;76.55;101046.41;4983948;28;20054;-76
2021/06/01 02:17:35;;;;;;;49.45;23.35;;;;;;;10.73;76.65;101041.19;4966327;28;20027;-76
2021/06/01 02:20:01;;;;;;;46.83;21.92;;;;;;;10.78;76.47;101031.69;4985019;28;20073;-76
2021/06/01 02:25:16;;;;;;;41.83;20.60;;;;;;;10.82;76.39;101033.41;4984783;28;20034;-75
2021/06/01 02:27:50;;;;;;;38.50;22.13;;;;;;;10.82;76.53;101035.13;4967336;28;20165;-75
2021/06/01 02:30:19;;;;;;;40.10;21.45;;;;;;;10.78;76.41;101031.69;4984617;28;20042;-75
2021/06/01 02:32:54;;;;;;;42.90;22.35;;;;;;;10.75;76.46;101036.88;4984365;28;20099;-75
2021/06/01 02:35:25;;;;;;;50.00;22.23;;;;;;;10.72;76.50;101029.09;4967165;28;20029;-76
2021/06/01 02:37:53;;;;;;;38.47;21.75;;;;;;;10.72;76.59;101031.69;4967593;28;20031;-76
2021/06/01 02:40:21;;;;;;;43.78;22.52;;;;;;;10.72;76.71;101029.09;4984519;28;20090;-75
2021/06/01 02:42:48;;;;;;;43.90;20.35;;;;;;;10.74;76.67;101029.94;4984680;28;20030;-75
2021/06/01 02:45:17;;;;;;;38.63;20.73;;;;;;;10.78;76.52;101036.88;4966896;28;20030;-75
2021/06/01 02:47:42;;;;;;;38.03;20.83;;;;;;;10.79;76.67;101030.81;4984368;28;20034;-75
2021/06/01 02:50:10;;;;;;;39.65;19.88;;;;;;;10.78;76.66;101029.09;4984645;28;20151;-75
2021/06/01 02:52:40;;;;;;;36.90;19.50;;;;;;;10.73;76.66;101010.03;4984604;28;20061;-75
2021/06/01 02:55:07;;;;;;;39.95;19.90;;;;;;;10.78;76.87;101021.31;4966849;28;20030;-75
2021/06/01 02:57:34;;;;;;;36.88;19.42;;;;;;;10.77;76.87;101020.41;4984193;28;20057;-75
2021/06/01 02:59:59;;;;;;;33.92;18.80;;;;;;;10.80;76.71;101018.69;4966930;28;20034;-75
2021/06/01 03:02:29;;;;;;;35.22;18.67;;;;;;;10.83;76.76;101023.91;4984197;28;20027;-75
2021/06/01 03:04:55;;;;;;;31.35;18.50;;;;;;;10.81;76.77;101025.63;4984276;28;20027;-75
2021/06/01 03:07:22;;;;;;;32.05;18.13;;;;;;;10.76;76.54;101021.31;4984237;28;20062;-75
2021/06/01 03:09:48;;;;;;;36.38;18.63;;;;;;;10.80;76.75;101026.50;4984385;28;20102;-75
2021/06/01 03:14:58;;;;;;;29.77;18.27;;;;;;;10.83;76.75;101016.94;4984266;28;20027;-75
2021/06/01 03:17:23;;;;;;;33.13;19.13;;;;;;;10.87;76.62;101026.50;4984095;28;20090;-76
2021/06/01 03:19:49;;;;;;;36.50;18.40;;;;;;;10.89;76.76;101023.91;4966959;28;20387;-75
2021/06/01 03:22:14;;;;;;;33.45;19.10;;;;;;;10.94;76.71;101013.50;4985797;28;20037;-76
2021/06/01 03:24:39;;;;;;;30.80;18.58;;;;;;;10.97;76.70;100997.91;4986558;28;20030;-76
2021/06/01 03:27:05;;;;;;;34.40;20.17;;;;;;;11.05;76.65;101018.69;4983817;28;20464;-76
2021/06/01 03:29:31;;;;;;;35.72;19.63;;;;;;;11.07;76.17;101033.41;4986517;28;20023;-77
2021/06/01 03:31:56;;;;;;;33.72;17.55;;;;;;;11.09;76.35;101031.69;4987031;28;20026;-76
2021/06/01 03:34:24;;;;;;;31.13;19.88;;;;;;;11.07;76.60;101024.75;4987939;28;20019;-76
2021/06/01 03:36:50;;;;;;;34.85;18.35;;;;;;;11.07;76.78;101015.22;4987740;28;20124;-77
2021/06/01 03:39:16;;;;;;;33.58;18.08;;;;;;;11.10;76.41;101015.22;4987781;28;20035;-76
2021/06/01 03:41:42;;;;;;;38.72;17.98;;;;;;;11.08;76.58;101027.34;4987710;28;20121;-76
2021/06/01 03:44:07;;;;;;;30.33;16.88;;;;;;;11.14;76.35;101027.34;4970138;28;20050;-76
2021/06/01 03:46:33;;;;;;;33.15;17.73;;;;;;;11.19;76.53;101039.47;4987214;28;20057;-76
2021/06/01 03:48:58;;;;;;;33.03;17.75;;;;;;;11.21;76.32;101048.13;4987768;28;20023;-76
2021/06/01 03:51:24;;;;;;;32.60;17.15;;;;;;;11.24;76.42;101049.00;4969973;28;20538;-76
2021/06/01 03:53:49;;;;;;;32.00;17.30;;;;;;;11.22;76.56;101039.47;4987512;28;20022;-76
2021/06/01 03:56:15;;;;;;;33.63;16.75;;;;;;;11.32;76.25;101035.13;4969307;28;20570;-76
2021/06/01 03:58:41;;;;;;;25.13;16.02;;;;;;;11.33;76.31;101039.44;4968950;28;20030;-76
2021/06/01 04:01:06;;;;;;;27.85;16.30;;;;;;;11.39;76.19;101032.50;4986007;28;20383;-76
2021/06/01 04:03:36;;;;;;;30.58;15.63;;;;;;;11.40;76.22;101034.25;4986392;28;20058;-76
2021/06/01 04:06:01;;;;;;;28.08;17.70;;;;;;;11.48;76.15;101041.16;4968668;28;20026;-76
2021/06/01 04:08:27;;;;;;;34.58;17.08;;;;;;;11.56;76.09;101028.16;4968443;28;20029;-76
2021/06/01 04:10:52;;;;;;;31.75;17.15;;;;;;;11.61;75.91;101026.41;4985888;28;20030;-76
2021/06/01 04:13:20;;;;;;;30.75;15.40;;;;;;;11.68;75.89;101024.66;4985998;28;20082;-76
2021/06/01 04:15:46;;;;;;;26.50;15.93;;;;;;;11.77;75.54;101027.22;4985798;28;20057;-73
2021/06/01 04:18:11;;;;;;;33.97;16.55;;;;;;;11.77;75.58;101014.22;4968300;28;20034;-77
2021/06/01 04:20:36;;;;;;;29.10;14.98;;;;;;;11.91;75.30;101032.38;4985836;28;20031;-76
2021/06/01 04:23:02;;;;;;;24.58;15.27;;;;;;;11.95;75.23;101033.25;4985671;28;20040;-75
2021/06/01 04:25:27;;;;;;;26.10;15.93;;;;;;;12.09;75.13;101031.44;4985704;28;20043;-76
2021/06/01 04:27:53;;;;;;;32.95;15.52;;;;;;;12.11;75.05;101021.03;4968284;28;20402;-76
2021/06/01 04:30:19;;;;;;;22.98;15.02;;;;;;;12.18;74.90;101020.13;4985502;28;20041;-76
2021/06/01 04:32:44;;;;;;;26.90;14.65;;;;;;;12.26;74.68;101017.50;4985330;28;20435;-76
2021/06/01 04:35:10;;;;;;;29.92;16.15;;;;;;;12.34;74.43;101030.47;4985513;28;20023;-75
2021/06/01 04:37:36;;;;;;;20.67;15.02;;;;;;;12.40;74.10;101035.63;4985568;28;20081;-70
2021/06/01 04:40:03;;;;;;;29.30;15.75;;;;;;;12.38;73.93;101038.25;4985195;28;20047;-69
2021/06/01 04:42:28;;;;;;;25.05;14.85;;;;;;;12.39;74.03;101041.72;4985567;28;20026;-71
2021/06/01 04:44:54;;;;;;;29.65;15.55;;;;;;;12.41;74.00;101041.72;4985082;28;20019;-71
2021/06/01 04:47:19;;;;;;;28.33;15.43;;;;;;;12.43;73.87;101042.56;4985252;28;20050;-71
2021/06/01 04:49:46;;;;;;;27.80;14.93;;;;;;;12.54;73.67;101053.78;4985305;28;20081;-71
2021/06/01 04:52:12;;;;;;;26.20;15.02;;;;;;;12.58;73.60;101042.47;4985260;28;20031;-69
2021/06/01 04:54:37;;;;;;;26.85;14.38;;;;;;;12.68;73.48;101051.09;4967831;28;20049;-69
2021/06/01 04:57:54;;;;;;;23.40;13.63;;;;;;;12.80;73.14;101055.34;5101088;27;20381;-66
2021/06/01 05:00:20;;;;;;;24.50;13.95;;;;;;;12.84;73.02;101051.81;5101126;28;20103;-69
2021/06/01 05:02:45;;;;;;;23.60;14.68;;;;;;;12.85;72.92;101050.97;5100737;28;20079;-69
2021/06/01 05:05:11;;;;;;;25.20;13.93;;;;;;;12.93;72.81;101055.25;5100762;28;20020;-74
2021/06/01 05:07:36;;;;;;;24.38;13.85;;;;;;;12.98;72.58;101062.16;5100557;28;20035;-69
2021/06/01 05:10:03;;;;;;;22.23;13.77;;;;;;;13.02;72.38;101065.59;5100415;28;20012;-71
2021/06/01 05:12:29;;;;;;;24.70;13.32;;;;;;;13.00;72.27;101060.41;5100732;28;20031;-69
2021/06/01 05:14:55;;;;;;;20.50;13.07;;;;;;;13.10;71.99;101068.16;5100692;28;20020;-69
2021/06/01 05:17:21;;;;;;;22.38;12.88;;;;;;;13.15;71.55;101076.78;5100654;28;20028;-69
2021/06/01 05:19:46;;;;;;;23.50;13.43;;;;;;;13.20;71.77;101081.97;5101092;28;20028;-69
2021/06/01 05:22:12;;;;;;;21.67;14.25;;;;;;;13.25;71.38;101082.78;5100789;28;20024;-69
2021/06/01 05:24:38;;;;;;;24.58;13.52;;;;;;;13.32;71.24;101079.25;5100742;28;20024;-69
2021/06/01 05:27:03;;;;;;;21.95;13.18;;;;;;;13.42;71.02;101085.25;5099199;28;20023;-69
2021/06/01 05:29:29;;;;;;;16.45;11.98;;;;;;;13.52;70.74;101086.06;5100639;28;20024;-69
2021/06/01 05:32:00;;;;;;;22.27;12.90;;;;;;;13.61;70.68;101091.19;5098840;28;20016;-72
2021/06/01 05:34:28;;;;;;;23.92;14.32;;;;;;;13.72;70.40;101098.03;5100626;28;20609;-68
2021/06/01 05:36:55;;;;;;;23.63;14.00;;;;;;;13.77;70.39;101096.22;5100128;28;20142;-68
2021/06/01 05:39:21;;;;;;;23.25;14.32;;;;;;;13.80;70.33;101092.75;5100277;28;20020;-69
2021/06/01 05:41:47;;;;;;;21.70;12.80;;;;;;;13.88;69.99;101091.75;5100295;28;20094;-68
2021/06/01 05:44:13;;;;;;;23.20;13.32;;;;;;;13.94;69.82;101095.19;5100447;28;20024;-68
2021/06/01 05:46:38;;;;;;;28.25;14.13;;;;;;;14.03;69.40;101094.22;5099834;28;20046;-68
2021/06/01 05:49:03;;;;;;;26.55;11.75;;;;;;;14.10;69.13;101094.16;5098886;28;20039;-68
2021/06/01 05:51:35;;;;;;;21.13;12.93;;;;;;;14.15;69.01;101091.47;5100030;28;20039;-68
2021/06/01 05:54:04;;;;;;;14.55;9.90;;;;;;;14.24;68.20;101091.34;5098892;28;20040;-68
2021/06/01 05:56:30;;;;;;;17.05;11.68;;;;;;;14.30;67.72;101085.19;5099696;28;20044;-68
2021/06/01 05:58:55;;;;;;;28.15;11.98;;;;;;;14.36;67.45;101094.69;5098646;28;20067;-68
2021/06/01 06:01:21;;;;;;;16.73;11.90;;;;;;;14.43;67.44;101091.09;5099685;28;20034;-69
2021/06/01 06:03:46;;;;;;;20.77;10.50;;;;;;;14.51;66.78;101085.78;5100085;28;20503;-69
2021/06/01 06:06:13;;;;;;;18.25;10.63;;;;;;;14.64;66.04;101081.25;5099782;28;20495;-69
2021/06/01 06:08:38;;;;;;;14.18;9.38;;;;;;;14.75;65.06;101079.34;5089858;28;20020;-68
2021/06/01 06:11:04;;;;;;;17.35;8.95;;;;;;;14.85;64.31;101082.72;5086224;28;20365;-69
2021/06/01 06:13:30;;;;;;;13.07;8.10;;;;;;;15.01;63.66;101081.59;5086496;28;20023;-68
2021/06/01 06:15:55;;;;;;;14.75;8.85;;;;;;;15.13;63.76;101091.00;5086064;28;20527;-69
2021/06/01 06:18:32;;;;;;;11.57;7.97;;;;;;;15.27;63.28;101090.75;5086172;28;20028;-70
2021/06/01 06:21:00;;;;;;;10.70;7.93;;;;;;;15.41;62.04;101085.28;5086261;28;20020;-68
2021/06/01 06:23:26;;;;;;;12.02;7.72;;;;;;;15.55;61.08;101091.13;5086150;28;20024;-68
2021/06/01 06:25:51;;;;;;;15.75;8.05;;;;;;;15.86;59.57;101114.09;5085934;28;20024;-68
2021/06/01 06:28:16;;;;;;;9.85;6.72;;;;;;;15.94;60.20;101115.72;5086170;28;20357;-68
2021/06/01 06:30:41;;;;;;;15.00;7.72;;;;;;;16.18;59.44;101117.00;5084458;28;20024;-68
2021/06/01 06:33:07;;;;;;;10.10;6.45;;;;;;;16.50;57.49;101118.97;5085558;28;20059;-68
2021/06/01 06:35:32;;;;;;;9.32;6.40;;;;;;;16.67;56.85;101118.59;5085862;28;20033;-68
2021/06/01 06:37:58;;;;;;;8.25;5.60;;;;;;;17.21;55.75;101111.25;5086134;28;20058;-68
2021/06/01 06:40:23;;;;;;;11.88;6.25;;;;;;;17.59;54.48;101104.16;5086031;28;20017;-68
2021/06/01 06:42:48;;;;;;;12.55;6.78;;;;;;;17.94;52.23;101108.44;5086020;28;20231;-68
2021/06/01 06:45:15;;;;;;;9.52;5.60;;;;;;;18.07;51.46;101116.84;5085918;28;20020;-67
2021/06/01 06:50:16;;;;;;;6.80;5.28;;;;;;;18.35;50.02;101115.22;5086036;28;20020;-68
2021/06/01 06:52:42;;;;;;;7.45;5.18;;;;;;;18.64;49.68;101113.47;5085701;28;20093;-68
2021/06/01 06:55:09;;;;;;;7.55;5.55;;;;;;;18.84;48.55;101118.09;5085446;28;20032;-68
2021/06/01 06:57:36;;;;;;;7.45;5.28;;;;;;;19.14;48.28;101115.41;5085284;28;20064;-66
2021/06/01 07:00:06;;;;;;;7.85;5.15;;;;;;;19.50;47.79;101113.34;5085701;28;20351;-66
2021/06/01 07:02:33;;;;;;;8.93;5.32;;;;;;;19.74;46.63;101111.66;5084908;28;20025;-66
2021/06/01 07:04:59;;;;;;;7.93;5.00;;;;;;;19.96;46.53;101115.25;5085634;28;20079;-66
2021/06/01 07:07:24;;;;;;;11.27;5.07;;;;;;;20.21;46.32;101109.97;5085332;28;20009;-66
2021/06/01 07:09:49;;;;;;;9.15;4.80;;;;;;;20.55;45.83;101110.44;5085287;28;20020;-67
2021/06/01 07:12:16;;;;;;;8.70;4.88;;;;;;;20.80;44.76;101114.72;5085255;28;20552;-67
2021/06/01 07:14:51;;;;;;;5.95;4.38;;;;;;;20.81;44.56;101111.19;5085311;28;20491;-67
2021/06/01 07:17:17;;;;;;;7.32;5.18;;;;;;;20.70;44.03;101118.66;5084709;28;20061;-67
2021/06/01 07:19:44;;;;;;;8.75;5.57;;;;;;;20.81;43.49;101135.78;5084120;28;20024;-67
2021/06/01 07:22:10;;;;;;;7.10;5.10;;;;;;;20.84;42.48;101132.16;5085111;28;20020;-67
2021/06/01 07:24:35;;;;;;;11.95;5.15;;;;;;;20.81;42.53;101129.66;5084911;28;20043;-67
2021/06/01 07:27:01;;;;;;;4.97;4.25;;;;;;;20.66;42.45;101121.44;5084329;28;20021;-66
2021/06/01 07:29:27;;;;;;;9.93;4.70;;;;;;;20.67;42.77;101120.50;5082754;28;20395;-67
2021/06/01 07:31:54;;;;;;;8.90;4.70;;;;;;;20.92;42.96;101122.19;5084464;28;20080;-67
2021/06/01 07:34:20;;;;;;;4.25;3.03;;;;;;;21.33;41.16;101117.00;5084917;28;20029;-67
2021/06/01 07:36:45;;;;;;;7.90;4.35;;;;;;;21.65;39.76;101113.00;5084545;28;20024;-70
2021/06/01 07:39:11;;;;;;;8.10;4.20;;;;;;;21.87;38.94;101111.22;5084702;28;20068;-67
2021/06/01 07:41:37;;;;;;;5.00;3.53;;;;;;;21.98;38.85;101111.56;5084578;28;20036;-66
2021/06/01 07:44:03;;;;;;;7.03;4.25;;;;;;;22.12;38.33;101120.66;5083254;28;20376;-66
2021/06/01 07:46:29;;;;;;;5.70;4.25;;;;;;;22.36;37.65;101115.16;5084026;28;20106;-66
2021/06/01 07:48:58;;;;;;;4.28;3.88;;;;;;;22.18;37.13;101120.38;5084698;28;20103;-66
2021/06/01 07:51:30;;;;;;;5.25;4.10;;;;;;;21.87;36.76;101119.16;5084247;28;20024;-66
2021/06/01 07:54:02;;;;;;;5.43;3.10;;;;;;;21.58;37.06;101113.34;5084427;28;20028;-66
2021/06/01 07:56:28;;;;;;;6.28;3.92;;;;;;;21.51;37.42;101120.66;5083892;28;20033;-66
2021/06/01 07:58:53;;;;;;;5.80;4.35;;;;;;;21.63;37.89;101121.91;5084423;28;20376;-66
2021/06/01 08:01:18;;;;;;;5.30;3.42;;;;;;;21.99;37.81;101129.16;5083767;28;20016;-67
2021/06/01 08:03:44;;;;;;;6.55;3.50;;;;;;;22.44;36.21;101131.53;5083715;28;20028;-66
2021/06/01 08:06:09;;;;;;;5.50;3.38;;;;;;;22.51;35.51;101122.38;5083047;28;20019;-66
2021/06/01 08:08:36;;;;;;;5.95;3.33;;;;;;;22.26;35.67;101123.53;5083166;28;20107;-66
2021/06/01 08:11:03;;;;;;;5.32;3.45;;;;;;;22.10;35.29;101133.09;5083080;28;20050;-67
2021/06/01 08:13:28;;;;;;;5.63;3.53;;;;;;;21.94;35.75;101133.78;5083944;28;20024;-67
2021/06/01 08:15:55;;;;;;;5.47;3.42;;;;;;;22.13;35.98;101119.72;5083804;28;20376;-66
2021/06/01 08:18:22;;;;;;;4.60;3.60;;;;;;;22.49;36.29;101134.81;5084121;28;20095;-66
2021/06/01 08:20:59;;;;;;;5.88;3.47;;;;;;;22.80;34.90;101135.16;5082784;28;20078;-66
2021/06/01 08:23:24;;;;;;;7.07;4.05;;;;;;;22.83;35.57;101128.88;5084035;28;20052;-66
2021/06/01 08:25:50;;;;;;;4.85;3.17;;;;;;;23.03;34.88;101128.72;5083707;28;20028;-65
2021/06/01 08:28:15;;;;;;;3.30;2.50;;;;;;;23.42;33.39;101133.06;5083667;28;20025;-68
2021/06/01 08:30:40;;;;;;;4.07;2.53;;;;;;;23.39;31.38;101128.75;5083489;28;20107;-66
2021/06/01 08:33:06;;;;;;;8.98;3.10;;;;;;;23.30;32.51;101122.13;5083563;28;20028;-66
2021/06/01 08:35:31;;;;;;;4.00;2.28;;;;;;;23.53;31.61;101130.72;5083322;28;20028;-67
2021/06/01 08:37:57;;;;;;;3.40;2.20;;;;;;;23.82;30.78;101127.47;5083591;28;20104;-66
2021/06/01 08:40:23;;;;;;;4.28;2.45;;;;;;;24.13;30.91;101129.31;5082427;28;20024;-67
2021/06/01 08:42:49;;;;;;;3.30;2.10;;;;;;;24.67;29.57;101126.44;5083526;28;20032;-66
2021/06/01 08:45:14;;;;;;;4.35;2.20;;;;;;;24.81;28.63;101129.16;5083514;28;20025;-66
2021/06/01 08:47:41;;;;;;;4.53;2.10;;;;;;;24.79;29.22;101131.06;5083185;28;20142;-66
2021/06/01 08:50:09;;;;;;;3.00;2.20;;;;;;;25.10;28.91;101133.75;5082760;28;20088;-67
2021/06/01 08:52:36;;;;;;;4.53;2.05;;;;;;;25.00;27.78;101128.97;5082588;28;20419;-66
2021/06/01 08:55:05;;;;;;;5.63;2.10;;;;;;;24.58;27.83;101134.00;5083166;28;20017;-67
2021/06/01 08:57:33;;;;;;;3.70;1.92;;;;;;;23.95;28.52;101130.31;5082763;28;20055;-66
2021/06/01 08:59:59;;;;;;;2.38;1.80;;;;;;;23.46;30.06;101126.66;5083254;28;20048;-66
2021/06/01 09:02:24;;;;;;;2.20;1.80;;;;;;;23.38;29.77;101119.97;5083112;28;20069;-67
2021/06/01 09:04:55;;;;;;;2.78;1.98;;;;;;;23.09;29.41;101127.56;5083260;28;20028;-66
2021/06/01 09:07:27;;;;;;;3.50;2.53;;;;;;;22.57;30.21;101123.00;5083040;28;20016;-65
2021/06/01 09:21:29;;;;;;;4.22;2.20;;;;;;;22.36;31.58;101129.25;5040537;28;20052;-68
2021/06/01 09:23:58;;;;;;;7.78;2.20;;;;;;;22.62;30.97;101128.97;5040575;28;20037;-67
2021/06/01 09:29:13;;;;;;;3.30;2.35;;;;;;;23.55;29.83;101130.66;5040404;28;20064;-67
2021/06/01 09:31:39;;;;;;;2.70;2.20;;;;;;;23.86;29.53;101126.38;5040083;28;20075;-67
2021/06/01 09:34:04;;;;;;;3.70;2.30;;;;;;;24.08;29.78;101126.06;5040597;28;20041;-67
2021/06/01 09:36:30;;;;;;;4.22;2.30;;;;;;;24.20;29.00;101129.84;5040160;28;20075;-67
2021/06/01 09:38:55;;;;;;;3.08;2.15;;;;;;;24.00;29.33;101126.47;5040546;28;20029;-67
2021/06/01 09:41:25;;;;;;;5.93;2.40;;;;;;;23.98;29.68;101127.47;5040278;28;20529;-67
2021/06/01 09:43:55;;;;;;;3.22;2.53;;;;;;;23.80;29.08;101130.22;5042731;28;20041;-68
2021/06/01 09:46:30;;;;;;;3.25;2.17;;;;;;;23.60;29.75;101131.25;5043777;28;20029;-67
2021/06/01 09:49:17;;;;;;;3.40;2.40;;;;;;;23.51;30.19;101133.44;5043990;28;20026;-68
2021/06/01 09:51:56;;;;;;;3.50;2.47;;;;;;;23.46;30.33;101127.53;5040456;28;20040;-68
2021/06/01 09:54:34;;;;;;;6.15;3.13;;;;;;;23.91;30.81;101129.63;5053891;28;20036;-67
2021/06/01 09:57:15;;;;;;;2.95;2.28;;;;;;;24.57;28.83;101131.44;5086138;28;20041;-68
2021/06/01 09:59:40;;;;;;;3.53;2.70;;;;;;;25.06;28.65;101140.19;5086805;28;20032;-68
2021/06/01 10:02:32;;;;;;;4.57;2.47;;;;;;;25.35;28.42;101129.66;5086145;28;20024;-68
2021/06/01 10:05:12;;;;;;;5.93;2.40;;;;;;;25.34;27.54;101125.25;5086648;28;20024;-68
2021/06/01 10:07:38;;;;;;;4.63;1.90;;;;;;;25.13;27.19;101125.59;5086567;28;20030;-68
2021/06/01 10:10:17;;;;;;;5.10;2.42;;;;;;;24.85;27.80;101125.41;5086499;28;20050;-67
2021/06/01 10:12:45;;;;;;;4.65;2.40;;;;;;;24.67;28.14;101126.44;5086323;28;20017;-67
2021/06/01 10:15:12;;;;;;;2.80;1.98;;;;;;;24.73;27.77;101129.59;5086425;28;20098;-68
2021/06/01 10:17:38;;;;;;;2.60;1.73;;;;;;;24.56;27.43;101129.69;5085599;28;20020;-68
2021/06/01 10:20:04;;;;;;;2.92;2.10;;;;;;;24.10;28.00;101116.22;5086316;28;20031;-69
2021/06/01 10:22:30;;;;;;;4.72;2.10;;;;;;;24.16;28.10;101128.31;5086064;28;20439;-67
2021/06/01 10:24:56;;;;;;;4.00;1.80;;;;;;;24.13;27.53;101131.97;5118868;28;20024;-71
2021/06/01 10:27:21;;;;;;;3.28;1.77;;;;;;;23.84;27.66;101129.09;5084462;28;20017;-67
2021/06/01 10:29:47;;;;;;;6.63;1.90;;;;;;;23.29;27.78;101123.06;5086049;28;20051;-68
2021/06/01 10:32:18;;;;;;;3.38;1.80;;;;;;;23.14;28.02;101132.63;5085646;28;20027;-64
2021/06/01 10:34:44;;;;;;;1.80;1.40;;;;;;;23.03;27.74;101144.59;5085908;28;20024;-63
2021/06/01 10:42:57;;;;;;;2.53;1.00;;;;;;;22.54;28.61;101137.22;5086011;28;20040;-65
2021/06/01 10:51:00;;;;;;;2.13;1.30;;;;;;;23.38;27.92;101138.53;5085735;28;20400;-64
2021/06/01 10:53:37;;;;;;;2.13;0.90;;;;;;;23.55;27.23;101134.13;5085505;28;20020;-63
2021/06/01 10:56:04;;;;;;;2.67;1.08;;;;;;;23.59;27.16;101142.78;5085308;28;20060;-63
2021/06/01 10:58:40;;;;;;;2.20;1.10;;;;;;;23.63;27.40;101136.38;5085364;28;20036;-63
2021/06/01 11:07:13;;;;;;;1.75;1.30;;;;;;;23.74;27.11;101126.06;5082410;28;20224;-64
2021/06/01 11:09:37;;;;;;;3.58;1.50;;;;;;;23.91;26.92;101131.41;5082036;28;20025;-64
2021/06/01 11:12:17;;;;;;;1.95;1.42;;;;;;;23.85;26.35;101125.50;5082635;28;20035;-64
2021/06/01 11:14:43;;;;;;;2.97;1.10;;;;;;;23.24;27.24;101139.16;5082180;28;20020;-63
2021/06/01 11:17:09;;;;;;;5.20;1.35;;;;;;;22.89;27.59;101141.81;5082083;28;20027;-63
2021/06/01 11:19:54;;;;;;;1.83;1.17;;;;;;;22.57;27.98;101130.94;5082460;28;20028;-64
2021/06/01 11:22:28;;;;;;;5.13;1.60;;;;;;;22.50;28.76;101120.66;5082167;28;20032;-64
2021/06/01 11:33:28;;;;;;;2.95;1.60;;;;;;;22.30;30.49;101105.72;5061818;28;20486;-64
2021/06/01 11:35:56;;;;;;;3.90;1.70;;;;;;;22.18;31.02;101093.94;5045218;28;20515;-63
2021/06/01 11:38:39;;;;;;;3.70;1.83;;;;;;;22.11;31.35;101082.78;5041846;28;20041;-63
2021/06/01 11:43:52;;;;;;;1.95;1.55;;;;;;;22.04;31.31;101092.78;5042143;28;20052;-63
2021/06/01 11:50:58;;;;;;;3.28;1.73;;;;;;;21.50;32.11;101098.66;5041762;28;20025;-64
2021/06/01 11:51:36;;;;;;;4.20;2.13;;;;;;;21.21;33.24;101092.88;5041401;28;20034;-67
2021/06/01 11:54:12;;;;;;;2.90;1.70;;;;;;;21.19;33.39;101089.44;5041787;28;20270;-69
2021/06/01 12:18:31;;;;;;;6.13;1.58;;;;;;;21.49;33.22;101064.38;5083728;28;20043;-68
2021/06/01 12:20:57;;;;;;;3.05;1.60;;;;;;;21.71;33.25;101056.38;5082508;28;20024;-68
2021/06/01 12:23:26;;;;;;;3.05;1.40;;;;;;;21.88;33.15;101068.00;5084002;28;20099;-69
2021/06/01 12:26:07;;;;;;;2.42;1.52;;;;;;;21.99;32.72;101063.06;5083915;28;20108;-69
2021/06/01 12:31:20;;;;;;;4.00;1.50;;;;;;;21.75;32.73;101055.31;5083892;28;20059;-69
2021/06/01 12:34:00;;;;;;;5.20;1.67;;;;;;;21.86;32.69;101056.63;5083381;28;20042;-69
2021/06/01 12:37:12;;;;;;;2.75;1.17;;;;;;;21.87;32.64;101059.19;5083481;28;20029;-69
2021/06/01 12:42:19;;;;;;;3.10;1.33;;;;;;;22.11;32.63;101050.22;5083881;28;20044;-69
2021/06/01 12:44:46;;;;;;;3.55;1.17;;;;;;;22.08;30.51;101056.50;5083564;28;20103;-68